Portada
METAR-TAF:

METAR-TAF

Aeroports :

Aeroport de Reus

Reus, Espanya

latitud: 41-09N, longitud: 001-10E, altitud: 71 m

Observació

L'informe es va fer fa 29 minuts, a les 21:00 UTC
Vent 1 kt amb direcció variable
Temperatura 22°C
Humitat 73%
Pressió 1019 hPa
Visibilitat 10 km o més
Núvols disperses a una alçada de 2500 ft

METAR: LERS 232100Z VRB01KT 9999 SCT025 22/17 Q1019

Hora: 23:29 (21:29 UTC)

Pronòstic

L'informe es va fer fa 1 hora i 29 minuts, a les 20:00 UTC
Pronòstic vàlid del 23 a les 21 UTC al 24 a les 21 UTC
Vent 3 kt amb direcció variable
Visibilitat 10 km o més
Escasses núvols a una alçada de 2500 ft
Evolucionant progressivament
l' 24 a les 08 UTC al 24 a les 10 UTC
Vent 10 kt del Sud-Est

TAF: LERS 232000Z 2321/2421 VRB03KT 9999 FEW025 TX30/2412Z TN18/2405Z BECMG 2408/2410 14010KT

Observacions i pronòstics meteorològics de més de 4000 aeroports (METAR i TAF).

Les estacions disponibles són els punts grocs i vermells al mapa.

Posi el ratolí al punt desitjat per veure el nom de l'estació.

Feu clic per veure les observacions i els pronòstics meteorològics.

Per canviar el mapa: feu clic els botons verds amb una creu de color negre per apropar; al botó verd amb un guió per allunyar la imatge; o en les fletxes verdes per a mapes adjacents.


METAR-TAF: